createdAt,value
2023-03-06T00:00:51.364Z,20.35
2023-03-06T00:03:19.194Z,14.23
2023-03-06T00:05:47.057Z,19.45
2023-03-06T00:08:15.245Z,16.48
2023-03-06T00:10:42.999Z,22.75
2023-03-06T00:13:13.805Z,14.88
2023-03-06T00:15:43.520Z,19.25
2023-03-06T00:18:11.334Z,23.23
2023-03-06T00:20:41.398Z,30.92
2023-03-06T00:23:09.411Z,20.40
2023-03-06T00:25:38.724Z,17.75
2023-03-06T00:28:07.018Z,15.75
2023-03-06T00:30:34.920Z,20.52
2023-03-06T00:33:03.980Z,14.90
2023-03-06T00:35:31.883Z,17.00
2023-03-06T00:38:00.159Z,16.58
2023-03-06T00:40:28.318Z,12.52
2023-03-06T00:42:56.088Z,18.85
2023-03-06T00:45:23.902Z,12.20
2023-03-06T00:47:51.814Z,20.30
2023-03-06T00:50:21.296Z,20.33
2023-03-06T00:52:49.161Z,23.38
2023-03-06T00:55:17.145Z,13.18
2023-03-06T00:57:44.899Z,13.38
2023-03-06T01:00:14.923Z,14.80
2023-03-06T01:02:42.657Z,14.52
2023-03-06T01:05:10.675Z,16.38
2023-03-06T01:07:39.778Z,16.50
2023-03-06T01:10:09.478Z,18.52
2023-03-06T01:12:37.539Z,13.82
2023-03-06T01:15:06.517Z,18.75
2023-03-06T01:17:34.224Z,16.35
2023-03-06T01:20:01.984Z,19.67
2023-03-06T01:22:29.868Z,18.25
2023-03-06T01:24:58.959Z,21.65
2023-03-06T01:27:26.808Z,12.63
2023-03-06T01:29:54.601Z,19.33
2023-03-06T01:32:22.528Z,14.68
2023-03-06T01:34:50.339Z,12.00
2023-03-06T01:37:18.138Z,15.15
2023-03-06T01:39:45.888Z,17.73
2023-03-06T01:42:14.970Z,12.27
2023-03-06T01:44:58.971Z,22.08
2023-03-06T01:47:26.856Z,18.23
2023-03-06T01:49:54.786Z,18.30
2023-03-06T01:52:26.706Z,18.42
2023-03-06T01:54:59.184Z,18.80
2023-03-06T01:57:31.975Z,18.15
2023-03-06T02:00:05.621Z,11.77
2023-03-06T02:02:33.605Z,15.43
2023-03-06T02:05:03.221Z,16.63
2023-03-06T02:07:31.764Z,21.30
2023-03-06T02:09:59.932Z,16.05
2023-03-06T02:12:29.438Z,15.77
2023-03-06T02:14:58.266Z,20.38
2023-03-06T02:17:26.678Z,12.90
2023-03-06T02:20:01.106Z,16.35
2023-03-06T02:22:37.288Z,13.07
2023-03-06T02:25:10.614Z,13.25
2023-03-06T02:27:40.055Z,17.70
2023-03-06T02:30:09.822Z,15.68
2023-03-06T02:32:37.668Z,19.23
2023-03-06T02:35:07.200Z,12.70
2023-03-06T02:37:35.066Z,17.58
2023-03-06T02:40:10.318Z,22.85
2023-03-06T02:42:39.520Z,19.23
2023-03-06T02:45:11.762Z,17.83
2023-03-06T02:47:39.614Z,15.40
2023-03-06T02:50:07.800Z,20.70
2023-03-06T02:52:35.503Z,17.00
2023-03-06T02:55:03.475Z,21.25
2023-03-06T02:57:31.224Z,24.80
2023-03-06T03:00:00.696Z,20.77
2023-03-06T03:02:28.683Z,20.67
2023-03-06T03:04:56.517Z,22.15
2023-03-06T03:07:24.311Z,22.00
2023-03-06T03:09:52.029Z,22.63
2023-03-06T03:12:19.743Z,16.55
2023-03-06T03:14:47.508Z,19.48
2023-03-06T03:17:17.188Z,21.67
2023-03-06T03:19:44.987Z,18.10
2023-03-06T03:22:12.711Z,19.25
2023-03-06T03:24:42.042Z,16.38
2023-03-06T03:27:09.978Z,16.63
2023-03-06T03:29:38.019Z,22.77
2023-03-06T03:32:06.564Z,22.02
2023-03-06T03:34:35.794Z,19.60
2023-03-06T03:37:03.594Z,16.55
2023-03-06T03:39:31.352Z,25.77
2023-03-06T03:41:59.200Z,18.60
2023-03-06T03:44:27.100Z,20.90
2023-03-06T03:46:54.835Z,17.02
2023-03-06T03:49:22.619Z,16.88
2023-03-06T03:51:52.702Z,17.95
2023-03-06T03:54:20.392Z,18.80
2023-03-06T03:56:48.105Z,17.73
2023-03-06T03:59:15.889Z,18.92
2023-03-06T04:01:44.606Z,21.10
2023-03-06T04:04:13.750Z,35.72
2023-03-06T04:06:41.559Z,20.83
2023-03-06T04:09:11.055Z,15.85
2023-03-06T04:11:38.841Z,20.05
2023-03-06T04:14:08.261Z,18.58
2023-03-06T04:16:36.080Z,19.00
2023-03-06T04:19:03.914Z,22.35
2023-03-06T04:21:31.697Z,21.63
2023-03-06T04:23:59.544Z,19.50
2023-03-06T04:26:28.821Z,18.70
2023-03-06T04:28:56.558Z,16.67
2023-03-06T04:31:24.379Z,21.15
2023-03-06T04:33:52.147Z,15.57
2023-03-06T04:36:27.916Z,16.40
2023-03-06T04:38:55.765Z,20.77
2023-03-06T04:41:23.679Z,17.75
2023-03-06T04:43:53.562Z,19.33
2023-03-06T04:46:21.333Z,20.02
2023-03-06T04:48:49.180Z,23.98
2023-03-06T04:51:17.011Z,15.27
2023-03-06T04:53:44.824Z,22.50
2023-03-06T04:56:12.554Z,17.15
2023-03-06T04:58:40.285Z,15.88
2023-03-06T05:01:09.555Z,20.58
2023-03-06T05:03:37.417Z,15.07
2023-03-06T05:06:05.567Z,17.08
2023-03-06T05:08:33.327Z,18.00
2023-03-06T05:11:02.525Z,19.17
2023-03-06T05:13:30.576Z,22.33
2023-03-06T05:16:02.898Z,17.50
2023-03-06T05:18:32.101Z,15.52
2023-03-06T05:21:00.129Z,14.70
2023-03-06T05:23:28.051Z,13.05
2023-03-06T05:25:55.848Z,25.98
2023-03-06T05:28:23.655Z,21.58
2023-03-06T05:30:51.420Z,18.80
2023-03-06T05:33:19.355Z,15.15
2023-03-06T05:35:49.812Z,14.43
2023-03-06T05:38:18.721Z,12.85
2023-03-06T05:40:46.962Z,16.92
2023-03-06T05:43:14.651Z,24.67
2023-03-06T05:45:42.386Z,15.43
2023-03-06T05:48:12.975Z,14.32
2023-03-06T05:50:41.108Z,18.02
2023-03-06T05:53:10.222Z,12.88
2023-03-06T05:55:38.038Z,22.83
2023-03-06T05:58:05.778Z,15.32
2023-03-06T06:00:33.484Z,19.55
2023-03-06T06:03:02.129Z,16.10
2023-03-06T06:05:29.904Z,16.23
2023-03-06T06:07:57.686Z,14.52
2023-03-06T06:10:26.763Z,16.67
2023-03-06T06:12:54.505Z,11.07
2023-03-06T06:15:22.231Z,14.23
2023-03-06T06:17:49.916Z,18.85
2023-03-06T06:20:18.272Z,12.23
2023-03-06T06:22:46.162Z,15.60
2023-03-06T06:25:14.573Z,18.95
2023-03-06T06:27:44.184Z,19.20
2023-03-06T06:30:13.423Z,11.65
2023-03-06T06:32:41.314Z,11.18
2023-03-06T06:35:09.660Z,11.10
2023-03-06T06:37:37.443Z,13.00
2023-03-06T06:40:05.942Z,15.25
2023-03-06T06:42:39.835Z,19.80
2023-03-06T06:45:10.989Z,12.52
2023-03-06T06:47:41.288Z,13.05
2023-03-06T06:50:11.657Z,23.42
2023-03-06T06:52:39.402Z,14.50
2023-03-06T06:55:07.971Z,13.43
2023-03-06T06:57:35.818Z,13.80
2023-03-06T07:00:03.863Z,18.83
2023-03-06T07:02:33.606Z,16.70
2023-03-06T07:05:04.658Z,16.40
2023-03-06T07:07:35.589Z,21.50
2023-03-06T07:10:05.537Z,16.00
2023-03-06T07:12:34.967Z,11.82
2023-03-06T07:15:02.762Z,11.45
2023-03-06T07:17:32.137Z,15.98
2023-03-06T07:19:59.963Z,14.77
2023-03-06T07:22:30.314Z,16.80
2023-03-06T07:25:00.006Z,15.60
2023-03-06T07:27:27.872Z,13.57
2023-03-06T07:29:55.821Z,17.83
2023-03-06T07:32:23.635Z,13.60
2023-03-06T07:34:52.802Z,19.30
2023-03-06T07:37:21.274Z,16.15
2023-03-06T07:39:49.028Z,14.85
2023-03-06T07:42:17.241Z,12.23
2023-03-06T07:44:44.936Z,13.05
2023-03-06T07:47:14.276Z,13.65
2023-03-06T07:49:42.005Z,11.82
2023-03-06T07:52:12.774Z,10.70
2023-03-06T07:54:40.479Z,11.60
2023-03-06T07:57:08.181Z,10.73
2023-03-06T07:59:35.949Z,10.25
2023-03-06T08:02:03.694Z,10.60
2023-03-06T08:04:31.392Z,14.90
2023-03-06T08:07:00.162Z,14.98
2023-03-06T08:09:29.239Z,7.65
2023-03-06T08:11:57.000Z,11.23
2023-03-06T08:14:24.797Z,11.05
2023-03-06T08:16:52.848Z,12.07
2023-03-06T08:19:20.616Z,7.03
2023-03-06T08:21:48.326Z,11.25
2023-03-06T08:24:16.761Z,16.30
2023-03-06T08:26:46.847Z,14.07
2023-03-06T08:29:15.377Z,11.32
2023-03-06T08:31:44.470Z,11.27
2023-03-06T08:34:14.584Z,11.02
2023-03-06T08:36:42.359Z,12.88
2023-03-06T08:39:10.300Z,11.10
2023-03-06T08:41:38.747Z,9.27
2023-03-06T08:44:07.998Z,12.38
2023-03-06T08:46:36.507Z,11.43
2023-03-06T08:49:05.171Z,18.17
2023-03-06T08:51:33.236Z,10.73
2023-03-06T08:54:01.187Z,14.63
2023-03-06T08:56:30.199Z,15.75
2023-03-06T08:58:59.552Z,10.30
2023-03-06T09:01:30.519Z,12.20
2023-03-06T09:04:00.422Z,11.90
2023-03-06T09:06:31.180Z,9.77
2023-03-06T09:08:59.331Z,8.90
2023-03-06T09:11:28.118Z,11.05
2023-03-06T09:13:55.974Z,9.02
2023-03-06T09:16:24.938Z,10.27
2023-03-06T09:18:54.393Z,6.18
2023-03-06T09:21:22.746Z,12.50
2023-03-06T09:23:51.213Z,8.32
2023-03-06T09:26:19.211Z,7.70
2023-03-06T09:28:47.089Z,9.85
2023-03-06T09:31:17.618Z,13.05
2023-03-06T09:33:46.439Z,13.38
2023-03-06T09:36:18.460Z,9.40
2023-03-06T09:38:48.217Z,8.80
2023-03-06T09:41:26.231Z,7.65
2023-03-06T09:43:57.458Z,8.48
2023-03-06T09:46:31.085Z,10.95
2023-03-06T09:49:13.859Z,13.48
2023-03-06T09:51:53.520Z,8.25
2023-03-06T09:54:27.697Z,18.73
2023-03-06T09:56:55.476Z,9.02
2023-03-06T09:59:25.496Z,11.40
2023-03-06T10:02:01.332Z,9.70
2023-03-06T10:04:39.097Z,13.38
2023-03-06T10:07:15.778Z,10.10
2023-03-06T10:09:47.569Z,9.95
2023-03-06T10:12:24.840Z,11.07
2023-03-06T10:15:08.013Z,12.43
2023-03-06T10:17:38.392Z,10.35
2023-03-06T10:20:24.950Z,8.27
2023-03-06T10:23:11.827Z,9.85
2023-03-06T10:25:47.494Z,10.10
2023-03-06T10:28:18.236Z,11.30
2023-03-06T10:30:53.599Z,8.20
2023-03-06T10:33:38.781Z,10.25
2023-03-06T10:36:07.255Z,10.52
2023-03-06T10:38:38.189Z,11.48
2023-03-06T10:41:09.719Z,13.23
2023-03-06T10:43:39.334Z,10.98
2023-03-06T10:46:08.628Z,14.40
2023-03-06T10:48:39.404Z,12.07
2023-03-06T10:51:18.924Z,12.30
2023-03-06T10:53:55.000Z,8.98
2023-03-06T10:56:33.831Z,9.88
2023-03-06T10:59:08.224Z,8.98
2023-03-06T11:01:36.734Z,11.00
2023-03-06T11:04:18.226Z,12.90
2023-03-06T11:06:46.029Z,10.32
2023-03-06T11:09:23.181Z,8.70
2023-03-06T11:11:51.141Z,11.75
2023-03-06T11:14:20.823Z,9.20
2023-03-06T11:16:53.148Z,8.95
2023-03-06T11:19:24.600Z,10.15
2023-03-06T11:22:03.390Z,13.85
2023-03-06T11:24:39.048Z,8.55
2023-03-06T11:27:22.182Z,9.15
2023-03-06T11:29:52.356Z,12.18
2023-03-06T11:32:23.497Z,9.23
2023-03-06T11:34:56.033Z,9.30
2023-03-06T11:37:34.772Z,7.63
2023-03-06T11:40:14.088Z,13.70
2023-03-06T11:42:46.663Z,9.27
2023-03-06T11:45:27.498Z,12.43
2023-03-06T11:48:02.667Z,13.55
2023-03-06T11:50:35.849Z,12.43
2023-03-06T11:53:06.010Z,13.52
2023-03-06T11:55:45.717Z,9.98
2023-03-06T11:58:38.116Z,8.63
2023-03-06T12:01:11.688Z,11.30
2023-03-06T12:04:14.720Z,12.38
2023-03-06T12:06:53.844Z,7.93
2023-03-06T12:09:32.037Z,10.25
2023-03-06T12:15:20.096Z,12.90
2023-03-06T12:18:02.428Z,5.57
2023-03-06T12:20:44.756Z,11.10
2023-03-06T12:23:28.263Z,10.57
2023-03-06T12:26:03.036Z,14.48
2023-03-06T12:28:50.270Z,13.85
2023-03-06T12:31:44.739Z,8.82
2023-03-06T12:34:25.542Z,9.40
2023-03-06T12:37:09.636Z,11.25
2023-03-06T12:39:51.585Z,12.48
2023-03-06T12:42:43.002Z,11.10
2023-03-06T12:45:32.724Z,12.35
2023-03-06T12:48:01.682Z,12.13
2023-03-06T12:50:32.323Z,12.05
2023-03-06T12:53:03.114Z,9.70
2023-03-06T12:55:38.704Z,10.15
2023-03-06T12:58:35.010Z,9.85
2023-03-06T13:01:10.599Z,10.13
2023-03-06T13:03:59.551Z,10.70
2023-03-06T13:06:50.214Z,6.00
2023-03-06T13:09:29.164Z,10.05
2023-03-06T13:12:24.411Z,8.65
2023-03-06T13:14:58.752Z,8.75
2023-03-06T13:17:38.463Z,15.80
2023-03-06T13:20:30.770Z,17.08
2023-03-06T13:22:58.857Z,6.65
2023-03-06T13:25:48.831Z,10.45
2023-03-06T13:28:39.936Z,8.50
2023-03-06T13:31:18.208Z,7.05
2023-03-06T13:33:59.896Z,8.15
2023-03-06T13:36:30.401Z,7.18
2023-03-06T13:39:03.111Z,8.27
2023-03-06T13:41:54.179Z,13.38
2023-03-06T13:44:43.409Z,7.45
2023-03-06T13:48:10.631Z,15.10
2023-03-06T13:50:42.205Z,10.45
2023-03-06T13:53:54.678Z,13.05
2023-03-06T13:56:47.975Z,9.65
2023-03-06T13:59:38.535Z,10.90
2023-03-06T14:02:31.887Z,7.40
2023-03-06T14:05:00.876Z,7.68
2023-03-06T14:07:32.074Z,10.02
2023-03-06T14:10:04.050Z,6.78
2023-03-06T14:12:35.173Z,10.18
2023-03-06T14:15:07.087Z,5.15
2023-03-06T14:17:39.127Z,6.40
2023-03-06T14:20:15.698Z,8.95
2023-03-06T14:22:45.028Z,4.65
2023-03-06T14:25:18.320Z,6.07
2023-03-06T14:27:49.869Z,6.82
2023-03-06T14:30:22.615Z,3.13
2023-03-06T14:32:55.625Z,5.18
2023-03-06T14:35:26.947Z,4.82
2023-03-06T14:38:00.121Z,4.55
2023-03-06T14:40:32.606Z,4.95
2023-03-06T14:43:18.732Z,5.38
2023-03-06T14:45:52.285Z,5.53
2023-03-06T14:48:20.621Z,4.28
2023-03-06T14:50:50.553Z,7.40
2023-03-06T14:53:23.423Z,5.13
2023-03-06T14:55:54.332Z,7.50
2023-03-06T14:58:29.745Z,5.40
2023-03-06T15:01:01.291Z,5.05
2023-03-06T15:03:40.490Z,3.63
2023-03-06T15:06:09.811Z,4.40
2023-03-06T15:08:41.162Z,5.63
2023-03-06T15:11:09.059Z,7.47
2023-03-06T15:13:36.946Z,3.80
2023-03-06T15:16:07.701Z,4.78
2023-03-06T15:18:39.148Z,7.30
2023-03-06T15:21:09.675Z,6.20
2023-03-06T15:23:40.444Z,4.07
2023-03-06T15:26:29.570Z,5.38
2023-03-06T15:29:09.479Z,6.93
2023-03-06T15:31:39.079Z,4.90
2023-03-06T15:34:23.410Z,8.73
2023-03-06T15:36:54.590Z,9.57
2023-03-06T15:40:01.955Z,5.97
2023-03-06T15:42:29.985Z,5.25
2023-03-06T15:45:02.992Z,7.65
2023-03-06T15:47:30.702Z,10.23
2023-03-06T15:49:58.514Z,8.63
2023-03-06T15:52:26.255Z,8.38
2023-03-06T15:54:55.378Z,6.18
2023-03-06T15:57:25.944Z,4.07
2023-03-06T15:59:55.955Z,5.25
2023-03-06T16:02:24.677Z,4.72
2023-03-06T16:04:53.172Z,7.57
2023-03-06T16:07:21.599Z,5.38
2023-03-06T16:09:49.462Z,8.63
2023-03-06T16:12:20.233Z,6.30
2023-03-06T16:14:49.261Z,4.80
2023-03-06T16:17:17.184Z,6.95
2023-03-06T16:19:45.273Z,7.78
2023-03-06T16:22:13.694Z,6.15
2023-03-06T16:24:41.682Z,7.72
2023-03-06T16:27:17.947Z,13.43
2023-03-06T16:29:47.071Z,9.52
2023-03-06T16:32:14.973Z,7.40
2023-03-06T16:34:42.787Z,13.25
2023-03-06T16:37:13.841Z,10.48
2023-03-06T16:39:41.828Z,12.90
2023-03-06T16:42:09.703Z,12.40
2023-03-06T16:44:37.538Z,11.70
2023-03-06T16:47:07.015Z,10.00
2023-03-06T16:49:34.761Z,9.10
2023-03-06T16:52:04.483Z,6.93
2023-03-06T16:54:32.219Z,6.97
2023-03-06T16:56:59.932Z,9.43
2023-03-06T16:59:27.698Z,9.48
2023-03-06T17:01:55.547Z,7.97
2023-03-06T17:04:24.616Z,8.45
2023-03-06T17:06:52.879Z,5.50
2023-03-06T17:09:20.635Z,6.60
2023-03-06T17:11:48.374Z,9.05
2023-03-06T17:14:16.227Z,7.80
2023-03-06T17:16:44.243Z,8.85
2023-03-06T17:19:14.375Z,9.50
2023-03-06T17:21:44.300Z,6.97
2023-03-06T17:24:12.282Z,7.88
2023-03-06T17:26:40.128Z,6.45
2023-03-06T17:29:09.301Z,7.90
2023-03-06T17:31:37.023Z,5.68
2023-03-06T17:34:05.004Z,4.70
2023-03-06T17:36:33.548Z,8.77
2023-03-06T17:39:04.274Z,8.48
2023-03-06T17:41:32.913Z,11.10
2023-03-06T17:44:01.720Z,9.50
2023-03-06T17:46:32.064Z,7.15
2023-03-06T17:49:00.643Z,16.23
2023-03-06T17:51:28.650Z,9.27
2023-03-06T17:53:57.358Z,12.70
2023-03-06T17:56:27.242Z,8.23
2023-03-06T17:58:55.390Z,6.93
2023-03-06T18:01:27.345Z,7.47
2023-03-06T18:03:55.544Z,10.75
2023-03-06T18:06:25.089Z,10.38
2023-03-06T18:08:53.144Z,9.13
2023-03-06T18:11:21.499Z,5.45
2023-03-06T18:13:50.670Z,12.45
2023-03-06T18:16:20.605Z,10.32
2023-03-06T18:18:48.629Z,8.98
2023-03-06T18:21:17.100Z,8.73
2023-03-06T18:23:45.123Z,11.45
2023-03-06T18:26:15.223Z,11.93
2023-03-06T18:28:44.963Z,7.50
2023-03-06T18:31:18.234Z,14.85
2023-03-06T18:33:48.298Z,8.88
2023-03-06T18:36:16.708Z,8.90
2023-03-06T18:38:45.654Z,8.77
2023-03-06T18:41:15.229Z,14.18
2023-03-06T18:43:43.203Z,7.07
2023-03-06T18:46:11.729Z,8.90
2023-03-06T18:48:40.923Z,9.77
2023-03-06T18:51:10.513Z,10.77
2023-03-06T18:53:40.062Z,7.60
2023-03-06T18:56:08.681Z,7.20
2023-03-06T18:58:36.494Z,8.35
2023-03-06T19:01:07.237Z,8.80
2023-03-06T19:03:35.439Z,11.05
2023-03-06T19:06:08.072Z,4.80
2023-03-06T19:08:36.714Z,7.45
2023-03-06T19:11:08.194Z,9.60
2023-03-06T19:13:36.079Z,7.25
2023-03-06T19:16:04.152Z,12.00
2023-03-06T19:18:32.021Z,7.78
2023-03-06T19:21:10.259Z,8.73
2023-03-06T19:23:38.070Z,7.03
2023-03-06T19:26:07.409Z,7.60
2023-03-06T19:28:36.128Z,7.28
2023-03-06T19:31:09.583Z,8.13
2023-03-06T19:36:06.937Z,9.10
2023-03-06T19:38:36.449Z,9.20
2023-03-06T19:41:04.287Z,10.95
2023-03-06T19:43:32.196Z,8.50
2023-03-06T19:46:00.616Z,9.00
2023-03-06T19:48:28.507Z,10.35
2023-03-06T19:50:56.223Z,9.57
2023-03-06T19:53:23.993Z,8.07
2023-03-06T19:55:53.067Z,7.38
2023-03-06T19:58:20.759Z,10.75
2023-03-06T20:00:48.450Z,6.40
2023-03-06T20:03:16.152Z,5.53
2023-03-06T20:05:47.391Z,9.88
2023-03-06T20:08:15.179Z,7.63
2023-03-06T20:10:42.970Z,6.80
2023-03-06T20:13:12.269Z,10.75
2023-03-06T20:15:40.239Z,8.35
2023-03-06T20:18:08.287Z,7.88
2023-03-06T20:20:37.621Z,9.30
2023-03-06T20:23:05.629Z,11.18
2023-03-06T20:25:36.265Z,5.30
2023-03-06T20:28:04.264Z,9.45
2023-03-06T20:30:38.079Z,9.65
2023-03-06T20:33:06.343Z,5.95
2023-03-06T20:35:34.146Z,13.02
2023-03-06T20:38:01.899Z,6.72
2023-03-06T20:40:29.763Z,5.45
2023-03-06T20:42:57.526Z,6.63
2023-03-06T20:45:25.311Z,12.23
2023-03-06T20:47:56.200Z,6.22
2023-03-06T20:50:25.568Z,6.53
2023-03-06T20:52:54.863Z,6.80
2023-03-06T20:55:22.800Z,5.63
2023-03-06T20:57:50.815Z,5.30
2023-03-06T21:00:20.916Z,7.10
2023-03-06T21:02:48.744Z,6.88
2023-03-06T21:05:18.001Z,11.48
2023-03-06T21:07:45.691Z,4.82
2023-03-06T21:10:14.524Z,7.88
2023-03-06T21:12:42.375Z,5.47
2023-03-06T21:15:10.640Z,7.93
2023-03-06T21:17:38.821Z,6.32
2023-03-06T21:20:07.464Z,5.65
2023-03-06T21:22:36.541Z,10.40
2023-03-06T21:25:04.495Z,6.65
2023-03-06T21:27:32.276Z,7.97
2023-03-06T21:30:00.012Z,7.50
2023-03-06T21:32:27.920Z,9.43
2023-03-06T21:34:55.685Z,8.57
2023-03-06T21:37:23.504Z,8.07
2023-03-06T21:39:52.826Z,4.85
2023-03-06T21:42:20.585Z,7.80
2023-03-06T21:44:48.407Z,6.22
2023-03-06T21:47:16.108Z,5.30
2023-03-06T21:49:43.823Z,11.27
2023-03-06T21:52:11.563Z,6.07
2023-03-06T21:54:39.302Z,4.20
2023-03-06T21:57:08.478Z,17.85
2023-03-06T21:59:37.477Z,5.40
2023-03-06T22:02:05.490Z,6.20
2023-03-06T22:04:33.252Z,13.07
2023-03-06T22:07:01.120Z,5.72
2023-03-06T22:09:28.834Z,4.82
2023-03-06T22:11:57.297Z,7.80
2023-03-06T22:14:26.536Z,3.35
2023-03-06T22:16:56.680Z,5.53
2023-03-06T22:19:24.656Z,5.13
2023-03-06T22:21:52.464Z,4.85
2023-03-06T22:24:20.210Z,4.85
2023-03-06T22:26:48.383Z,11.38
2023-03-06T22:29:16.195Z,7.07
2023-03-06T22:31:45.391Z,5.93
2023-03-06T22:34:13.172Z,5.78
2023-03-06T22:36:40.945Z,8.05
2023-03-06T22:39:08.772Z,10.05
2023-03-06T22:41:36.497Z,6.13
2023-03-06T22:44:04.238Z,9.20
2023-03-06T22:46:33.369Z,8.60
2023-03-06T22:49:03.202Z,7.07
2023-03-06T22:51:31.065Z,5.88
2023-03-06T22:53:59.046Z,6.30
2023-03-06T22:56:26.891Z,8.60
2023-03-06T22:58:54.620Z,4.28
2023-03-06T23:01:25.144Z,4.85
2023-03-06T23:03:55.023Z,3.95
2023-03-06T23:06:25.890Z,4.85
2023-03-06T23:08:55.872Z,4.43
2023-03-06T23:11:24.362Z,7.18
2023-03-06T23:13:52.483Z,7.22
2023-03-06T23:16:20.264Z,7.03
2023-03-06T23:18:48.376Z,7.68
2023-03-06T23:21:18.298Z,5.80
2023-03-06T23:23:50.705Z,9.35
2023-03-06T23:26:20.601Z,4.35
2023-03-06T23:28:49.473Z,6.45
2023-03-06T23:31:19.329Z,6.57
2023-03-06T23:33:47.866Z,7.13
2023-03-06T23:36:17.731Z,5.70
2023-03-06T23:38:46.445Z,5.75
2023-03-06T23:41:18.054Z,3.95
2023-03-06T23:43:46.562Z,4.80
2023-03-06T23:46:14.990Z,4.10
2023-03-06T23:48:43.836Z,5.22
2023-03-06T23:51:15.212Z,5.82
2023-03-06T23:53:43.086Z,5.32
2023-03-06T23:56:11.686Z,4.88
2023-03-06T23:58:41.232Z,7.18
